Time;durP1;ratioP1;P1;durP2;ratioP2;P2;SDS_P1;SDS_P2;PMS_P1;PMS_P2;Temp;Humidity;BMP_temperature;BMP_pressure;BME280_temperature;BME280_humidity;BME280_pressure;Samples;Min_cycle;Max_cycle;Signal;HPM_P1;HPM_P2
2023/05/03 00:02:15;;;;;;;;;;;10.10;84.70;;;;;;5047323;28;19913;-67
2023/05/03 00:04:40;;;;;;;;;;;10.10;84.70;;;;;;5047816;28;19909;-68
2023/05/03 00:07:07;;;;;;;;;;;10.10;84.70;;;;;;5030081;28;19916;-67
2023/05/03 00:09:34;;;;;;;;;;;10.10;84.80;;;;;;5047824;28;20490;-68
2023/05/03 00:12:00;;;;;;;;;;;10.00;84.80;;;;;;5047463;28;20276;-67
2023/05/03 00:14:26;;;;;;;;;;;10.00;84.80;;;;;;5047432;28;20377;-68
2023/05/03 00:16:51;;;;;;;;;;;10.00;84.90;;;;;;5047621;28;19919;-68
2023/05/03 00:19:18;;;;;;;;;;;10.00;84.80;;;;;;5042043;28;19936;-68
2023/05/03 00:21:44;;;;;;;;;;;10.00;84.80;;;;;;5047376;28;19999;-67
2023/05/03 00:24:10;;;;;;;;;;;10.00;84.90;;;;;;5047826;28;19909;-68
2023/05/03 00:26:35;;;;;;;;;;;9.90;84.80;;;;;;5047688;28;19924;-68
2023/05/03 00:29:01;;;;;;;;;;;9.90;84.90;;;;;;5047252;28;20346;-68
2023/05/03 00:31:27;;;;;;;;;;;9.90;84.90;;;;;;5047446;28;19955;-68
2023/05/03 00:33:52;;;;;;;;;;;9.90;84.90;;;;;;5047039;28;19912;-68
2023/05/03 00:36:18;;;;;;;;;;;9.90;84.90;;;;;;5047215;28;20116;-68
2023/05/03 00:38:43;;;;;;;;;;;9.80;84.90;;;;;;5047279;28;20529;-68
2023/05/03 00:41:09;;;;;;;;;;;9.80;84.90;;;;;;5047096;28;19919;-68
2023/05/03 00:43:36;;;;;;;;;;;9.80;84.90;;;;;;5029017;28;19924;-68
2023/05/03 00:46:02;;;;;;;;;;;9.80;84.90;;;;;;5046902;28;19961;-67
2023/05/03 00:48:28;;;;;;;;;;;9.80;85.00;;;;;;5046574;28;19968;-67
2023/05/03 00:50:55;;;;;;;;;;;9.70;85.00;;;;;;5046830;28;19912;-67
2023/05/03 00:53:21;;;;;;;;;;;9.70;84.90;;;;;;5046856;28;19919;-68
2023/05/03 00:55:47;;;;;;;;;;;9.70;84.90;;;;;;5046860;28;20285;-67
2023/05/03 00:58:12;;;;;;;;;;;9.70;85.00;;;;;;5047034;28;19927;-67
2023/05/03 01:00:38;;;;;;;;;;;9.60;84.90;;;;;;5045796;28;20003;-68
2023/05/03 01:03:04;;;;;;;;;;;9.60;84.90;;;;;;5046694;28;19912;-67
2023/05/03 01:05:34;;;;;;;;;;;9.60;84.90;;;;;;5046895;28;19930;-68
2023/05/03 01:08:06;;;;;;;;;;;9.60;85.00;;;;;;5026081;28;19924;-67
2023/05/03 01:10:42;;;;;;;;;;;9.50;84.90;;;;;;5045523;28;19917;-67
2023/05/03 01:13:18;;;;;;;;;;;9.50;84.90;;;;;;5046496;28;19920;-67
2023/05/03 01:15:57;;;;;;;;;;;9.50;85.00;;;;;;5046639;28;19913;-67
2023/05/03 01:18:27;;;;;;;;;;;9.50;85.00;;;;;;5046729;28;19913;-67
2023/05/03 01:20:52;;;;;;;;;;;9.50;85.00;;;;;;5028691;28;19925;-67
2023/05/03 01:23:27;;;;;;;;;;;9.40;85.00;;;;;;5046436;28;19916;-67
2023/05/03 01:25:53;;;;;;;;;;;9.40;85.10;;;;;;5046533;28;19913;-67
2023/05/03 01:28:18;;;;;;;;;;;9.40;85.00;;;;;;5046392;28;19917;-67
2023/05/03 01:30:45;;;;;;;;;;;9.40;85.10;;;;;;5044464;28;19943;-67
2023/05/03 01:33:10;;;;;;;;;;;9.40;85.00;;;;;;5046298;27;19940;-67
2023/05/03 01:35:42;;;;;;;;;;;9.40;85.10;;;;;;5028261;28;20580;-67
2023/05/03 01:38:08;;;;;;;;;;;9.30;84.90;;;;;;5046432;28;19944;-67
2023/05/03 01:40:48;;;;;;;;;;;9.30;85.10;;;;;;5046275;28;19912;-67
2023/05/03 01:43:15;;;;;;;;;;;9.30;85.10;;;;;;5027824;28;19953;-67
2023/05/03 01:45:41;;;;;;;;;;;9.30;85.10;;;;;;5045907;28;19908;-67
2023/05/03 01:48:10;;;;;;;;;;;9.30;85.10;;;;;;5045445;28;19920;-67
2023/05/03 01:50:36;;;;;;;;;;;9.30;85.10;;;;;;5046009;28;19916;-67
2023/05/03 01:53:01;;;;;;;;;;;9.30;85.10;;;;;;5045938;28;19919;-67
2023/05/03 01:55:27;;;;;;;;;;;9.20;85.20;;;;;;5028069;28;19912;-67
2023/05/03 01:57:53;;;;;;;;;;;9.20;85.10;;;;;;5046299;28;19912;-67
2023/05/03 02:00:18;;;;;;;;;;;9.20;85.20;;;;;;5044983;28;20392;-67
2023/05/03 02:02:43;;;;;;;;;;;9.20;85.80;;;;;;5045888;28;19921;-68
2023/05/03 02:05:10;;;;;;;;;;;9.20;85.20;;;;;;5028006;28;19915;-67
2023/05/03 02:07:35;;;;;;;;;;;9.20;85.20;;;;;;5046104;28;20005;-67
2023/05/03 02:10:01;;;;;;;;;;;9.10;85.20;;;;;;5045816;28;20475;-67
2023/05/03 02:12:26;;;;;;;;;;;9.10;85.10;;;;;;5045522;28;19919;-67
2023/05/03 02:14:52;;;;;;;;;;;9.10;85.20;;;;;;5045571;28;19913;-67
2023/05/03 02:17:17;;;;;;;;;;;9.10;85.20;;;;;;5045945;28;19952;-67
2023/05/03 02:19:43;;;;;;;;;;;9.00;85.10;;;;;;5045460;28;19920;-67
2023/05/03 02:22:08;;;;;;;;;;;9.00;85.20;;;;;;5045568;28;19921;-67
2023/05/03 02:24:35;;;;;;;;;;;9.00;85.20;;;;;;5045931;28;19931;-67
2023/05/03 02:27:03;;;;;;;;;;;9.00;85.20;;;;;;5045761;28;20352;-67
2023/05/03 02:29:29;;;;;;;;;;;9.00;85.20;;;;;;5045202;28;20566;-67
2023/05/03 02:31:55;;;;;;;;;;;9.00;85.20;;;;;;5045413;28;20549;-67
2023/05/03 02:34:20;;;;;;;;;;;9.00;85.30;;;;;;5045393;28;19960;-67
2023/05/03 02:36:46;;;;;;;;;;;9.00;85.30;;;;;;5045402;28;19917;-67
2023/05/03 02:39:11;;;;;;;;;;;8.90;85.30;;;;;;5044988;28;20277;-67
2023/05/03 02:41:37;;;;;;;;;;;8.90;85.30;;;;;;5044180;28;19920;-67
2023/05/03 02:44:02;;;;;;;;;;;8.90;85.40;;;;;;5044003;28;20568;-67
2023/05/03 02:46:28;;;;;;;;;;;8.90;85.20;;;;;;5044730;28;19920;-67
2023/05/03 02:48:53;;;;;;;;;;;8.80;85.90;;;;;;5027583;28;19916;-67
2023/05/03 02:51:19;;;;;;;;;;;8.90;85.30;;;;;;5045198;28;19912;-67
2023/05/03 02:53:45;;;;;;;;;;;8.80;85.30;;;;;;5045245;28;19920;-67
2023/05/03 02:56:10;;;;;;;;;;;8.80;85.30;;;;;;5045263;28;20522;-67
2023/05/03 02:58:36;;;;;;;;;;;8.80;85.30;;;;;;5044383;28;19917;-67
2023/05/03 03:01:01;;;;;;;;;;;8.80;85.30;;;;;;5044974;28;20005;-67
2023/05/03 03:03:27;;;;;;;;;;;8.80;85.30;;;;;;5044981;28;19913;-67
2023/05/03 03:05:52;;;;;;;;;;;8.70;85.40;;;;;;5042101;28;20523;-67
2023/05/03 03:08:18;;;;;;;;;;;8.70;85.30;;;;;;5045019;28;19923;-67
2023/05/03 03:10:43;;;;;;;;;;;8.70;85.30;;;;;;5045127;28;19913;-67
2023/05/03 03:13:09;;;;;;;;;;;8.70;85.30;;;;;;5044924;28;19909;-67
2023/05/03 03:15:34;;;;;;;;;;;8.70;85.30;;;;;;5044901;28;19931;-67
2023/05/03 03:18:00;;;;;;;;;;;8.70;85.30;;;;;;5045118;28;19989;-67
2023/05/03 03:20:25;;;;;;;;;;;8.70;85.30;;;;;;5045117;28;19944;-67
2023/05/03 03:22:51;;;;;;;;;;;8.70;85.40;;;;;;5026958;28;20376;-67
2023/05/03 03:25:16;;;;;;;;;;;8.70;85.40;;;;;;5044801;28;20417;-67
2023/05/03 03:27:42;;;;;;;;;;;8.60;85.30;;;;;;5044840;28;19923;-67
2023/05/03 03:30:08;;;;;;;;;;;8.60;85.40;;;;;;5044204;28;19923;-67
2023/05/03 03:32:34;;;;;;;;;;;8.60;85.40;;;;;;5044777;28;19928;-67
2023/05/03 03:35:00;;;;;;;;;;;8.60;85.40;;;;;;5044642;28;19913;-68
2023/05/03 03:37:25;;;;;;;;;;;8.60;85.40;;;;;;5044738;28;19999;-67
2023/05/03 03:39:51;;;;;;;;;;;8.50;85.40;;;;;;5044588;28;20678;-67
2023/05/03 03:42:16;;;;;;;;;;;8.50;85.40;;;;;;5039434;28;19925;-67
2023/05/03 03:44:42;;;;;;;;;;;8.50;85.30;;;;;;5026318;28;19913;-67
2023/05/03 03:47:07;;;;;;;;;;;8.50;85.30;;;;;;5044183;28;19955;-67
2023/05/03 03:49:33;;;;;;;;;;;8.50;85.30;;;;;;5044565;28;20043;-67
2023/05/03 03:51:58;;;;;;;;;;;8.50;85.30;;;;;;5026467;28;20007;-67
2023/05/03 03:54:24;;;;;;;;;;;8.40;85.30;;;;;;5045933;28;19958;-67
2023/05/03 03:56:51;;;;;;;;;;;8.40;85.40;;;;;;5047959;28;19916;-67
2023/05/03 03:59:16;;;;;;;;;;;8.40;85.30;;;;;;5047050;28;19916;-67
2023/05/03 04:01:42;;;;;;;;;;;8.40;85.30;;;;;;5047790;28;19920;-67
2023/05/03 04:04:07;;;;;;;;;;;8.40;85.30;;;;;;5046065;28;19913;-67
2023/05/03 04:06:33;;;;;;;;;;;8.40;85.30;;;;;;5046665;28;20000;-67
2023/05/03 04:08:58;;;;;;;;;;;8.40;85.30;;;;;;5047628;28;19945;-67
2023/05/03 04:11:24;;;;;;;;;;;8.40;85.30;;;;;;5047659;28;19920;-67
2023/05/03 04:13:50;;;;;;;;;;;8.30;85.20;;;;;;5047237;28;19915;-67
2023/05/03 04:16:15;;;;;;;;;;;8.40;85.30;;;;;;5046909;28;19910;-67
2023/05/03 04:18:41;;;;;;;;;;;8.30;85.30;;;;;;5040419;28;20422;-67
2023/05/03 04:21:07;;;;;;;;;;;8.30;85.30;;;;;;5038126;28;19952;-67
2023/05/03 04:23:32;;;;;;;;;;;8.30;85.30;;;;;;5046869;28;20003;-67
2023/05/03 04:25:58;;;;;;;;;;;8.30;85.30;;;;;;5047352;28;19920;-67
2023/05/03 04:28:25;;;;;;;;;;;8.30;85.30;;;;;;5047220;28;19930;-67
2023/05/03 04:30:52;;;;;;;;;;;8.30;85.30;;;;;;5047270;28;19913;-68
2023/05/03 04:33:18;;;;;;;;;;;8.30;85.30;;;;;;5046875;28;19913;-67
2023/05/03 04:35:43;;;;;;;;;;;8.30;85.30;;;;;;5046920;28;20366;-67
2023/05/03 04:38:09;;;;;;;;;;;8.30;85.40;;;;;;5037768;28;19999;-67
2023/05/03 04:40:34;;;;;;;;;;;8.30;85.30;;;;;;5030716;28;20073;-67
2023/05/03 04:43:00;;;;;;;;;;;8.30;85.30;;;;;;5046853;28;19916;-67
2023/05/03 04:45:26;;;;;;;;;;;8.20;85.30;;;;;;5046950;28;20359;-67
2023/05/03 04:47:51;;;;;;;;;;;8.20;85.30;;;;;;5029058;28;19920;-67
2023/05/03 04:50:17;;;;;;;;;;;8.20;85.30;;;;;;5046198;28;19916;-67
2023/05/03 04:52:43;;;;;;;;;;;8.20;85.30;;;;;;5046661;28;19989;-67
2023/05/03 04:55:09;;;;;;;;;;;8.20;85.30;;;;;;5046839;28;19912;-67
2023/05/03 04:57:34;;;;;;;;;;;8.20;85.40;;;;;;5046696;28;20411;-67
2023/05/03 05:00:00;;;;;;;;;;;8.20;85.40;;;;;;5013898;28;19913;-67
2023/05/03 05:02:26;;;;;;;;;;;8.20;85.40;;;;;;5026675;28;19920;-67
2023/05/03 05:04:52;;;;;;;;;;;8.20;86.10;;;;;;5025872;28;20012;-67
2023/05/03 05:07:18;;;;;;;;;;;8.20;85.40;;;;;;5026824;28;20673;-67
2023/05/03 05:09:43;;;;;;;;;;;8.20;85.40;;;;;;5026495;28;20000;-67
2023/05/03 05:12:09;;;;;;;;;;;8.20;85.40;;;;;;5031633;28;19948;-67
2023/05/03 05:14:34;;;;;;;;;;;8.20;85.40;;;;;;5045474;28;19917;-67
2023/05/03 05:17:00;;;;;;;;;;;8.20;85.40;;;;;;5044504;28;19909;-67
2023/05/03 05:19:25;;;;;;;;;;;8.20;85.40;;;;;;5046170;28;20270;-67
2023/05/03 05:21:51;;;;;;;;;;;8.20;85.40;;;;;;5045987;28;20338;-68
2023/05/03 05:24:17;;;;;;;;;;;8.20;85.40;;;;;;5046524;28;19912;-67
2023/05/03 05:26:43;;;;;;;;;;;8.20;85.50;;;;;;5028365;28;20373;-67
2023/05/03 05:29:09;;;;;;;;;;;8.20;85.50;;;;;;5046116;28;19955;-67
2023/05/03 05:31:35;;;;;;;;;;;8.20;85.50;;;;;;5027585;28;19989;-67
2023/05/03 05:34:01;;;;;;;;;;;8.20;85.60;;;;;;5045485;28;20645;-67
2023/05/03 05:36:26;;;;;;;;;;;8.20;85.60;;;;;;5046043;28;19913;-67
2023/05/03 05:38:52;;;;;;;;;;;8.20;85.70;;;;;;5046206;28;20513;-67
2023/05/03 05:41:17;;;;;;;;;;;8.20;85.70;;;;;;5045901;28;19959;-67
2023/05/03 05:43:43;;;;;;;;;;;8.20;85.70;;;;;;5045813;28;19920;-67
2023/05/03 05:46:09;;;;;;;;;;;8.20;85.70;;;;;;5045710;28;19917;-67
2023/05/03 05:48:34;;;;;;;;;;;8.20;85.70;;;;;;5045779;28;20346;-67
2023/05/03 05:51:00;;;;;;;;;;;8.20;85.70;;;;;;5045861;28;19913;-67
2023/05/03 05:53:25;;;;;;;;;;;8.20;85.70;;;;;;5045724;28;20936;-67
2023/05/03 05:55:51;;;;;;;;;;;8.20;85.60;;;;;;5046080;28;19912;-67
2023/05/03 05:58:17;;;;;;;;;;;8.30;85.70;;;;;;5045225;28;19915;-67
2023/05/03 06:00:42;;;;;;;;;;;8.30;85.70;;;;;;5045392;28;19912;-67
2023/05/03 06:03:08;;;;;;;;;;;8.30;85.70;;;;;;5027967;28;20353;-67
2023/05/03 06:05:33;;;;;;;;;;;8.30;85.70;;;;;;5045901;28;20015;-67
2023/05/03 06:07:59;;;;;;;;;;;8.30;85.70;;;;;;5027824;28;20335;-67
2023/05/03 06:10:25;;;;;;;;;;;8.30;85.60;;;;;;5045620;28;19913;-67
2023/05/03 06:12:50;;;;;;;;;;;8.30;85.60;;;;;;5045421;28;19961;-67
2023/05/03 06:15:16;;;;;;;;;;;8.40;85.60;;;;;;5027588;28;19942;-67
2023/05/03 06:17:41;;;;;;;;;;;8.40;85.70;;;;;;5044699;28;20310;-67
2023/05/03 06:20:10;;;;;;;;;;;8.40;85.60;;;;;;5045754;28;19909;-67
2023/05/03 06:22:36;;;;;;;;;;;8.40;85.60;;;;;;5045449;28;20003;-67
2023/05/03 06:25:02;;;;;;;;;;;8.50;85.70;;;;;;5045805;28;20011;-67
2023/05/03 06:27:27;;;;;;;;;;;8.50;85.70;;;;;;5046018;28;19981;-67
2023/05/03 06:29:53;;;;;;;;;;;8.50;85.50;;;;;;5045493;28;19917;-67
2023/05/03 06:32:20;;;;;;;;;;;8.50;85.50;;;;;;5045374;28;19913;-67
2023/05/03 06:34:47;;;;;;;;;;;8.50;85.50;;;;;;5027487;28;20012;-67
2023/05/03 06:37:12;;;;;;;;;;;8.50;85.50;;;;;;5045681;28;19909;-67
2023/05/03 06:39:38;;;;;;;;;;;8.60;85.50;;;;;;5045657;28;19912;-68
2023/05/03 06:42:04;;;;;;;;;;;8.60;85.50;;;;;;5045237;28;20410;-67
2023/05/03 06:44:29;;;;;;;;;;;8.60;85.50;;;;;;5045381;28;19956;-67
2023/05/03 06:46:55;;;;;;;;;;;8.60;85.40;;;;;;5045350;28;19916;-67
2023/05/03 06:49:21;;;;;;;;;;;8.60;85.50;;;;;;5045354;28;19917;-67
2023/05/03 06:51:46;;;;;;;;;;;8.70;85.50;;;;;;5026980;28;19917;-67
2023/05/03 06:54:12;;;;;;;;;;;8.70;85.50;;;;;;5045415;28;20246;-67
2023/05/03 06:56:37;;;;;;;;;;;8.70;85.50;;;;;;5045226;28;19956;-67
2023/05/03 06:59:03;;;;;;;;;;;8.80;85.40;;;;;;5044859;28;19953;-67
2023/05/03 07:01:29;;;;;;;;;;;8.70;85.40;;;;;;5044421;28;19916;-67
2023/05/03 07:03:55;;;;;;;;;;;8.70;85.40;;;;;;5045067;28;19916;-67
2023/05/03 07:06:22;;;;;;;;;;;8.70;85.60;;;;;;5045025;28;19919;-67
2023/05/03 07:08:51;;;;;;;;;;;8.80;85.50;;;;;;5044822;28;19917;-67
2023/05/03 07:11:17;;;;;;;;;;;8.70;85.60;;;;;;5045063;28;19963;-67
2023/05/03 07:13:43;;;;;;;;;;;8.70;85.60;;;;;;5044718;28;20004;-67
2023/05/03 07:16:08;;;;;;;;;;;8.70;85.70;;;;;;5044867;28;20023;-67
2023/05/03 07:18:34;;;;;;;;;;;8.80;85.90;;;;;;5044660;28;19913;-67
2023/05/03 07:21:04;;;;;;;;;;;8.80;85.90;;;;;;5043948;28;19923;-67
2023/05/03 07:23:30;;;;;;;;;;;8.80;85.80;;;;;;5042911;28;19920;-67
2023/05/03 07:25:56;;;;;;;;;;;8.80;85.80;;;;;;5043482;28;20575;-67
2023/05/03 07:28:21;;;;;;;;;;;8.80;85.90;;;;;;5044432;28;19959;-67
2023/05/03 07:30:47;;;;;;;;;;;8.80;85.80;;;;;;5046631;28;19913;-67
2023/05/03 07:33:12;;;;;;;;;;;8.80;85.80;;;;;;5046410;28;19913;-67
2023/05/03 07:35:38;;;;;;;;;;;8.80;85.90;;;;;;5047232;28;19913;-68
2023/05/03 07:38:03;;;;;;;;;;;8.90;85.80;;;;;;5048277;28;19966;-67
2023/05/03 07:40:31;;;;;;;;;;;8.90;85.80;;;;;;5048062;28;20422;-68
2023/05/03 07:43:00;;;;;;;;;;;8.90;85.80;;;;;;5047304;28;19931;-67
2023/05/03 07:45:26;;;;;;;;;;;8.90;85.80;;;;;;5047934;28;20369;-67
2023/05/03 07:47:51;;;;;;;;;;;8.90;85.80;;;;;;5047937;28;19913;-67
2023/05/03 07:50:17;;;;;;;;;;;8.90;85.80;;;;;;5047669;28;19917;-67
2023/05/03 07:52:43;;;;;;;;;;;8.90;85.90;;;;;;5047673;28;20311;-67
2023/05/03 07:55:08;;;;;;;;;;;9.00;85.90;;;;;;5047934;28;19913;-67
2023/05/03 07:57:35;;;;;;;;;;;9.00;85.90;;;;;;5047907;28;20424;-67
2023/05/03 08:00:00;;;;;;;;;;;9.00;85.90;;;;;;5046760;28;19912;-67
2023/05/03 08:02:26;;;;;;;;;;;9.10;85.90;;;;;;5029563;28;19965;-67
2023/05/03 08:04:53;;;;;;;;;;;9.10;85.70;;;;;;5047805;28;19915;-67
2023/05/03 08:07:19;;;;;;;;;;;9.10;85.80;;;;;;5047538;28;19913;-67
2023/05/03 08:09:44;;;;;;;;;;;9.10;85.70;;;;;;5047426;28;19920;-68
2023/05/03 08:12:10;;;;;;;;;;;9.20;85.70;;;;;;5046886;28;19909;-67
2023/05/03 08:14:36;;;;;;;;;;;9.20;85.70;;;;;;5029581;28;19917;-67
2023/05/03 08:17:03;;;;;;;;;;;9.20;85.70;;;;;;5047558;28;20527;-67
2023/05/03 08:19:29;;;;;;;;;;;9.30;85.60;;;;;;5047357;28;19913;-67
2023/05/03 08:21:54;;;;;;;;;;;9.30;85.70;;;;;;5047163;28;20616;-67
2023/05/03 08:24:20;;;;;;;;;;;9.30;85.50;;;;;;5047168;28;19999;-68
2023/05/03 08:26:47;;;;;;;;;;;9.30;85.60;;;;;;5047097;28;19917;-67
2023/05/03 08:29:13;;;;;;;;;;;9.40;85.60;;;;;;5047234;28;20001;-67
2023/05/03 08:31:38;;;;;;;;;;;9.40;85.60;;;;;;5047461;28;19916;-67
2023/05/03 08:34:05;;;;;;;;;;;9.40;85.50;;;;;;5062834;28;20373;-67
2023/05/03 08:36:31;;;;;;;;;;;9.40;85.50;;;;;;5047323;28;19920;-67
2023/05/03 08:38:57;;;;;;;;;;;9.50;85.50;;;;;;5047369;28;19913;-67
2023/05/03 08:41:27;;;;;;;;;;;9.50;85.40;;;;;;5046405;28;19913;-67
2023/05/03 08:43:53;;;;;;;;;;;9.50;85.30;;;;;;5027127;28;20108;-68
2023/05/03 08:46:19;;;;;;;;;;;9.60;85.20;;;;;;5013090;28;19920;-68
2023/05/03 08:48:48;;;;;;;;;;;9.60;85.20;;;;;;5046933;28;20393;-67
2023/05/03 08:51:15;;;;;;;;;;;9.60;85.20;;;;;;5047008;28;19913;-67
2023/05/03 08:53:40;;;;;;;;;;;9.70;85.20;;;;;;5046862;28;20417;-67
2023/05/03 08:56:07;;;;;;;;;;;9.70;85.00;;;;;;5047134;28;19995;-68
2023/05/03 08:58:36;;;;;;;;;;;9.80;85.00;;;;;;5046453;28;19909;-68
2023/05/03 09:01:05;;;;;;;;;;;9.80;84.90;;;;;;5046514;28;20665;-68
2023/05/03 09:03:31;;;;;;;;;;;9.80;84.90;;;;;;5046623;28;19913;-68
2023/05/03 09:06:00;;;;;;;;;;;9.90;84.80;;;;;;5046785;28;19957;-68
2023/05/03 09:08:26;;;;;;;;;;;9.90;84.60;;;;;;5046820;28;20469;-68
2023/05/03 09:10:52;;;;;;;;;;;10.00;84.50;;;;;;5046701;28;19909;-67
2023/05/03 09:13:18;;;;;;;;;;;10.00;84.40;;;;;;5046354;28;19913;-68
2023/05/03 09:15:51;;;;;;;;;;;10.10;84.40;;;;;;5028670;28;19912;-68
2023/05/03 09:18:20;;;;;;;;;;;10.10;84.30;;;;;;5028744;28;19923;-68
2023/05/03 09:20:52;;;;;;;;;;;10.20;84.10;;;;;;5046136;28;20584;-68
2023/05/03 09:23:27;;;;;;;;;;;10.20;84.00;;;;;;5046516;28;20349;-68
2023/05/03 09:25:53;;;;;;;;;;;10.20;84.10;;;;;;5046682;28;19940;-68
2023/05/03 09:28:19;;;;;;;;;;;10.30;84.10;;;;;;5028814;28;20397;-68
2023/05/03 09:30:45;;;;;;;;;;;10.30;84.00;;;;;;5046455;28;19943;-68
2023/05/03 09:33:11;;;;;;;;;;;10.30;83.90;;;;;;5046624;28;19944;-68
2023/05/03 09:35:54;;;;;;;;;;;10.40;84.00;;;;;;5046005;28;19958;-68
2023/05/03 09:38:25;;;;;;;;;;;10.40;83.90;;;;;;5046198;28;20047;-68
2023/05/03 09:40:50;;;;;;;;;;;10.50;84.40;;;;;;5046105;28;19922;-68
2023/05/03 09:43:16;;;;;;;;;;;10.50;84.00;;;;;;5045916;28;20527;-68
2023/05/03 09:45:41;;;;;;;;;;;10.50;83.90;;;;;;5046038;28;19920;-68
2023/05/03 09:48:07;;;;;;;;;;;10.50;83.80;;;;;;5046279;28;19917;-68
2023/05/03 09:50:33;;;;;;;;;;;10.60;83.70;;;;;;5046011;28;19924;-68
2023/05/03 09:53:03;;;;;;;;;;;10.60;83.70;;;;;;5045104;28;19913;-68
2023/05/03 09:55:35;;;;;;;;;;;10.70;83.50;;;;;;5046062;28;19913;-68
2023/05/03 09:58:05;;;;;;;;;;;10.70;83.40;;;;;;5046207;28;20081;-68
2023/05/03 10:00:34;;;;;;;;;;;10.80;83.30;;;;;;5045148;28;20365;-68
2023/05/03 10:03:01;;;;;;;;;;;10.90;83.30;;;;;;5027893;28;19909;-68
2023/05/03 10:05:29;;;;;;;;;;;10.90;83.20;;;;;;5045979;28;19917;-68
2023/05/03 10:07:57;;;;;;;;;;;10.90;83.20;;;;;;5045968;28;19917;-68
2023/05/03 10:10:22;;;;;;;;;;;11.00;82.90;;;;;;5046032;28;19920;-68
2023/05/03 10:12:48;;;;;;;;;;;11.00;83.10;;;;;;5027911;28;20462;-68
2023/05/03 10:15:15;;;;;;;;;;;11.10;83.30;;;;;;5045806;28;20437;-68
2023/05/03 10:17:41;;;;;;;;;;;11.20;83.00;;;;;;5043240;28;20376;-68
2023/05/03 10:20:27;;;;;;;;;;;11.20;83.10;;;;;;5029652;28;19921;-68
2023/05/03 10:23:10;;;;;;;;;;;11.30;82.80;;;;;;5037050;28;20603;-69
2023/05/03 10:25:37;;;;;;;;;;;11.30;83.40;;;;;;5045443;28;19962;-68
2023/05/03 10:28:04;;;;;;;;;;;11.50;83.50;;;;;;5045427;28;20393;-69
2023/05/03 10:30:31;;;;;;;;;;;11.50;83.30;;;;;;5045516;28;19917;-68
2023/05/03 10:33:12;;;;;;;;;;;11.60;83.30;;;;;;5045267;28;19908;-69
2023/05/03 10:35:41;;;;;;;;;;;11.70;83.60;;;;;;5045195;28;19909;-69
2023/05/03 10:38:18;;;;;;;;;;;11.80;83.60;;;;;;5041781;28;19917;-68
2023/05/03 10:40:45;;;;;;;;;;;11.90;82.80;;;;;;5030345;28;20339;-69
2023/05/03 10:43:29;;;;;;;;;;;12.00;83.50;;;;;;5044865;28;19916;-68
2023/05/03 10:45:58;;;;;;;;;;;12.10;83.70;;;;;;5045258;28;20468;-69
2023/05/03 10:48:24;;;;;;;;;;;12.20;82.90;;;;;;5045220;28;19919;-69
2023/05/03 10:50:50;;;;;;;;;;;12.30;83.80;;;;;;5044868;28;20535;-68
2023/05/03 10:53:34;;;;;;;;;;;12.40;83.60;;;;;;5044796;28;19952;-68
2023/05/03 10:56:02;;;;;;;;;;;12.50;84.00;;;;;;5045265;28;19937;-68
2023/05/03 10:58:28;;;;;;;;;;;12.60;83.80;;;;;;5044849;28;19991;-69
2023/05/03 11:00:55;;;;;;;;;;;12.70;83.60;;;;;;5027034;28;20015;-69
2023/05/03 11:03:20;;;;;;;;;;;12.80;83.60;;;;;;5046144;28;19972;-69
2023/05/03 11:05:46;;;;;;;;;;;13.00;83.90;;;;;;5048182;28;20313;-69
2023/05/03 11:08:18;;;;;;;;;;;13.00;83.70;;;;;;5048192;28;19912;-69
2023/05/03 11:10:44;;;;;;;;;;;13.10;83.90;;;;;;5048316;28;19920;-68
2023/05/03 11:13:10;;;;;;;;;;;13.30;83.90;;;;;;5048059;28;19909;-69
2023/05/03 11:15:36;;;;;;;;;;;13.40;83.90;;;;;;5048224;28;19917;-69
2023/05/03 11:18:02;;;;;;;;;;;13.50;83.70;;;;;;5048239;28;19932;-68
2023/05/03 11:20:28;;;;;;;;;;;13.60;83.70;;;;;;5030094;28;20398;-69
2023/05/03 11:22:54;;;;;;;;;;;13.70;83.60;;;;;;5047978;28;19989;-69
2023/05/03 11:25:20;;;;;;;;;;;13.70;83.60;;;;;;5048065;28;19917;-68
2023/05/03 11:27:46;;;;;;;;;;;13.80;83.50;;;;;;5048236;28;19945;-68
2023/05/03 11:30:12;;;;;;;;;;;13.90;83.50;;;;;;5047838;28;20431;-69
2023/05/03 11:32:38;;;;;;;;;;;14.00;83.60;;;;;;5048048;28;19908;-68
2023/05/03 11:35:05;;;;;;;;;;;14.10;83.50;;;;;;5047938;28;20429;-68
2023/05/03 11:37:31;;;;;;;;;;;14.20;83.60;;;;;;5048544;28;19957;-69
2023/05/03 11:39:57;;;;;;;;;;;14.30;83.70;;;;;;5048369;28;19940;-68
2023/05/03 11:42:24;;;;;;;;;;;14.40;83.70;;;;;;5047637;28;20473;-69
2023/05/03 11:44:51;;;;;;;;;;;14.40;83.80;;;;;;5047516;28;20397;-68
2023/05/03 11:47:17;;;;;;;;;;;14.50;83.80;;;;;;5047860;28;20053;-69
2023/05/03 11:49:52;;;;;;;;;;;14.60;83.80;;;;;;5047495;28;20326;-69
2023/05/03 11:52:24;;;;;;;;;;;14.60;83.30;;;;;;5029380;28;19909;-69
2023/05/03 11:54:50;;;;;;;;;;;14.70;84.10;;;;;;5047781;28;19913;-68
2023/05/03 11:57:15;;;;;;;;;;;14.80;84.10;;;;;;5047595;28;19920;-69
2023/05/03 11:59:41;;;;;;;;;;;14.90;84.10;;;;;;5029156;28;19913;-68
2023/05/03 12:02:08;;;;;;;;;;;14.90;84.20;;;;;;5047273;28;19920;-69
2023/05/03 12:04:35;;;;;;;;;;;15.00;84.40;;;;;;5047696;28;19912;-69
2023/05/03 12:07:02;;;;;;;;;;;15.10;84.50;;;;;;5047176;28;19909;-69
2023/05/03 12:09:27;;;;;;;;;;;15.10;85.30;;;;;;5047388;28;20547;-69
2023/05/03 12:11:53;;;;;;;;;;;15.20;84.70;;;;;;5045925;28;19913;-69
2023/05/03 12:14:18;;;;;;;;;;;15.20;84.90;;;;;;5046610;28;19919;-69
2023/05/03 12:16:45;;;;;;;;;;;15.30;85.00;;;;;;5047303;28;19920;-69
2023/05/03 12:19:11;;;;;;;;;;;15.40;85.00;;;;;;5047645;28;19953;-69
2023/05/03 12:21:43;;;;;;;;;;;15.40;85.00;;;;;;5046988;28;19942;-69
2023/05/03 12:24:09;;;;;;;;;;;15.50;85.20;;;;;;5047485;28;19913;-69
2023/05/03 12:26:34;;;;;;;;;;;15.60;85.50;;;;;;5047465;28;20342;-68
2023/05/03 12:29:00;;;;;;;;;;;15.60;85.20;;;;;;5047424;28;19919;-69
2023/05/03 12:31:26;;;;;;;;;;;15.60;85.20;;;;;;5029396;28;19956;-69
2023/05/03 12:33:51;;;;;;;;;;;15.70;85.30;;;;;;5047358;28;19912;-69
2023/05/03 12:36:18;;;;;;;;;;;15.70;85.30;;;;;;5047175;28;20036;-69
2023/05/03 12:38:43;;;;;;;;;;;15.80;85.40;;;;;;5047363;28;19912;-69
2023/05/03 12:41:10;;;;;;;;;;;15.80;85.30;;;;;;5047281;28;19956;-69
2023/05/03 12:43:35;;;;;;;;;;;15.90;85.30;;;;;;5046667;28;19916;-69
2023/05/03 12:46:01;;;;;;;;;;;16.00;85.40;;;;;;5046958;28;19913;-69
2023/05/03 12:48:27;;;;;;;;;;;16.00;85.30;;;;;;5047018;28;19961;-69
2023/05/03 12:50:53;;;;;;;;;;;16.10;85.40;;;;;;5046938;28;19912;-69
2023/05/03 12:53:19;;;;;;;;;;;16.10;85.30;;;;;;5028951;28;19984;-69
2023/05/03 12:55:45;;;;;;;;;;;16.10;85.00;;;;;;5047041;28;19917;-69
2023/05/03 12:58:11;;;;;;;;;;;16.20;85.30;;;;;;5046829;28;19919;-69
2023/05/03 13:00:36;;;;;;;;;;;16.30;85.20;;;;;;5028052;28;19995;-69
2023/05/03 13:03:02;;;;;;;;;;;16.30;85.20;;;;;;5046505;28;19992;-69
2023/05/03 13:05:28;;;;;;;;;;;16.40;83.90;;;;;;5028881;28;20023;-70
2023/05/03 13:07:53;;;;;;;;;;;16.50;84.10;;;;;;5028863;28;20430;-69
2023/05/03 13:10:19;;;;;;;;;;;16.50;84.10;;;;;;5046510;28;20367;-70
2023/05/03 13:12:45;;;;;;;;;;;16.60;85.00;;;;;;5046096;28;19921;-69
2023/05/03 13:15:10;;;;;;;;;;;16.60;85.00;;;;;;5046675;28;20003;-69
2023/05/03 13:17:36;;;;;;;;;;;16.70;85.30;;;;;;5046218;28;19956;-69
2023/05/03 13:20:07;;;;;;;;;;;16.70;85.20;;;;;;5046404;28;20322;-69
2023/05/03 13:22:32;;;;;;;;;;;16.80;84.00;;;;;;5046509;28;19921;-70
2023/05/03 13:24:58;;;;;;;;;;;16.80;85.10;;;;;;5046524;28;19913;-69
2023/05/03 13:27:23;;;;;;;;;;;16.90;85.10;;;;;;5046322;28;19913;-70
2023/05/03 13:29:49;;;;;;;;;;;16.90;83.60;;;;;;5046245;28;19923;-70
2023/05/03 13:32:16;;;;;;;;;;;17.00;85.00;;;;;;5027714;28;21419;-70
2023/05/03 13:34:42;;;;;;;;;;;17.00;84.90;;;;;;5046283;28;20021;-69
2023/05/03 13:37:07;;;;;;;;;;;17.10;84.80;;;;;;5046234;28;19913;-69
2023/05/03 13:39:33;;;;;;;;;;;17.10;85.10;;;;;;5046386;28;20024;-69
2023/05/03 13:41:58;;;;;;;;;;;17.20;85.00;;;;;;5046026;28;20097;-70
2023/05/03 13:44:24;;;;;;;;;;;17.20;85.10;;;;;;5078293;27;20260;-69
2023/05/03 13:46:51;;;;;;;;;;;17.20;84.90;;;;;;5045431;28;19913;-69
2023/05/03 13:49:16;;;;;;;;;;;17.30;84.00;;;;;;5027827;28;19921;-69
2023/05/03 13:51:42;;;;;;;;;;;17.30;83.70;;;;;;5045526;28;19985;-69
2023/05/03 13:54:07;;;;;;;;;;;17.40;83.90;;;;;;5045943;28;19913;-71
2023/05/03 13:56:33;;;;;;;;;;;17.40;82.10;;;;;;5045832;28;19913;-70
2023/05/03 13:58:59;;;;;;;;;;;17.50;83.10;;;;;;5045345;28;19913;-68
2023/05/03 14:01:26;;;;;;;;;;;17.50;83.10;;;;;;5045323;28;19915;-70
2023/05/03 14:03:52;;;;;;;;;;;17.60;84.70;;;;;;5045568;28;19999;-71
2023/05/03 14:06:18;;;;;;;;;;;17.60;83.70;;;;;;5045831;28;19920;-70
2023/05/03 14:08:44;;;;;;;;;;;17.70;82.70;;;;;;5045547;28;20357;-69
2023/05/03 14:11:13;;;;;;;;;;;17.70;83.50;;;;;;5045733;28;19954;-70
2023/05/03 14:13:40;;;;;;;;;;;17.80;82.80;;;;;;5045390;28;19912;-72
2023/05/03 14:16:06;;;;;;;;;;;17.80;82.80;;;;;;5045441;28;19913;-70
2023/05/03 14:18:31;;;;;;;;;;;17.90;82.40;;;;;;5045784;28;19913;-70
2023/05/03 14:20:58;;;;;;;;;;;17.90;82.20;;;;;;5045490;28;19921;-69
2023/05/03 14:23:24;;;;;;;;;;;18.00;81.80;;;;;;5045628;28;19920;-68